createdAt,value
2022-12-17T00:01:00.918Z,86488.88
2022-12-17T00:03:28.264Z,86493.28
2022-12-17T00:05:56.010Z,86495.88
2022-12-17T00:08:23.487Z,86489.22
2022-12-17T00:10:50.672Z,86493.28
2022-12-17T00:13:23.046Z,86497.75
2022-12-17T00:15:53.693Z,86493.19
2022-12-17T00:18:21.714Z,86501.38
2022-12-17T00:20:57.579Z,86502.47
2022-12-17T00:23:24.704Z,86507.25
2022-12-17T00:25:56.723Z,86504.84
2022-12-17T00:28:23.841Z,86516.00
2022-12-17T00:30:52.596Z,86517.19
2022-12-17T00:33:19.901Z,86519.88
2022-12-17T00:35:53.134Z,86518.72
2022-12-17T00:38:20.621Z,86509.84
2022-12-17T00:40:54.752Z,86519.91
2022-12-17T00:43:24.123Z,86517.66
2022-12-17T00:45:52.530Z,86521.84
2022-12-17T00:48:19.671Z,86521.53
2022-12-17T00:50:46.851Z,86522.63
2022-12-17T00:53:14.166Z,86528.63
2022-12-17T00:55:42.448Z,86532.75
2022-12-17T00:58:09.616Z,86529.03
2022-12-17T01:00:36.856Z,86534.69
2022-12-17T01:03:11.626Z,86535.09
2022-12-17T01:05:38.851Z,86538.81
2022-12-17T01:08:12.008Z,86535.03
2022-12-17T01:10:39.230Z,86544.41
2022-12-17T01:13:06.362Z,86536.53
2022-12-17T01:15:33.510Z,86543.25
2022-12-17T01:18:00.755Z,86547.38
2022-12-17T01:20:27.874Z,86552.56
2022-12-17T01:22:56.530Z,86554.09
2022-12-17T01:25:24.055Z,86555.25
2022-12-17T01:27:51.959Z,86556.00
2022-12-17T01:30:19.227Z,86551.88
2022-12-17T01:32:46.378Z,86558.22
2022-12-17T01:35:13.706Z,86556.34
2022-12-17T01:37:40.945Z,86565.97
2022-12-17T01:40:09.682Z,86562.31
2022-12-17T01:42:47.051Z,86567.16
2022-12-17T01:45:15.024Z,86565.28
2022-12-17T01:47:56.408Z,86566.84
2022-12-17T01:50:29.936Z,86571.66
2022-12-17T01:53:00.935Z,86583.16
2022-12-17T01:55:28.198Z,86582.41
2022-12-17T01:57:55.712Z,86579.47
2022-12-17T02:00:23.146Z,86575.59
2022-12-17T02:02:50.379Z,86581.25
2022-12-17T02:05:21.157Z,86583.53
2022-12-17T02:08:22.780Z,86573.78
2022-12-17T02:11:09.004Z,86583.78
2022-12-17T02:13:48.407Z,86578.56
2022-12-17T02:16:24.165Z,86583.06
2022-12-17T02:19:02.241Z,86578.16
2022-12-17T02:21:32.525Z,86594.91
2022-12-17T02:24:16.122Z,86593.41
2022-12-17T02:26:47.197Z,86593.41
2022-12-17T02:29:15.529Z,86598.31
2022-12-17T02:31:47.562Z,86592.69
2022-12-17T02:34:15.007Z,86595.66
2022-12-17T02:36:42.112Z,86600.53
2022-12-17T02:39:09.533Z,86596.81
2022-12-17T02:41:57.179Z,86601.69
2022-12-17T02:44:26.054Z,86596.06
2022-12-17T02:46:57.054Z,86600.56
2022-12-17T02:49:24.340Z,86606.94
2022-12-17T02:51:53.876Z,86612.53
2022-12-17T02:54:21.024Z,86614.06
2022-12-17T02:56:50.200Z,86613.25
2022-12-17T02:59:17.330Z,86614.34
2022-12-17T03:01:44.635Z,86614.34
2022-12-17T03:04:11.854Z,86620.31
2022-12-17T03:06:39.266Z,86619.16
2022-12-17T03:09:06.432Z,86623.63
2022-12-17T03:11:33.614Z,86637.41
2022-12-17T03:14:00.796Z,86628.84
2022-12-17T03:16:31.470Z,86629.97
2022-12-17T03:19:03.937Z,86635.50
2022-12-17T03:21:31.136Z,86638.75
2022-12-17T03:23:58.767Z,86636.88
2022-12-17T03:26:25.937Z,86638.31
2022-12-17T03:28:53.323Z,86633.09
2022-12-17T03:31:21.103Z,86638.97
2022-12-17T03:33:48.340Z,86638.31
2022-12-17T03:36:15.590Z,86643.75
2022-12-17T03:38:42.729Z,86649.81
2022-12-17T03:41:09.993Z,86651.75
2022-12-17T03:43:37.627Z,86645.81
2022-12-17T03:46:05.245Z,86651.03
2022-12-17T03:48:32.419Z,86655.19
2022-12-17T03:50:59.921Z,86655.97
2022-12-17T03:53:27.061Z,86655.97
2022-12-17T03:55:54.227Z,86651.50
2022-12-17T03:58:21.516Z,86659.41
2022-12-17T04:00:48.644Z,86665.69
2022-12-17T04:03:16.074Z,86662.00
2022-12-17T04:05:43.603Z,86663.78
2022-12-17T04:08:10.740Z,86667.44
2022-12-17T04:10:37.923Z,86666.66
2022-12-17T04:13:05.438Z,86674.44
2022-12-17T04:15:32.683Z,86674.28
2022-12-17T04:17:59.906Z,86686.56
2022-12-17T04:20:27.126Z,86691.81
2022-12-17T04:22:54.332Z,86688.53
2022-12-17T04:25:21.624Z,86690.44
2022-12-17T04:27:48.872Z,86697.56
2022-12-17T04:30:16.221Z,86693.63
2022-12-17T04:32:43.431Z,86702.25
2022-12-17T04:35:10.795Z,86707.44
2022-12-17T04:37:38.024Z,86708.56
2022-12-17T04:40:05.990Z,86717.03
2022-12-17T04:42:33.191Z,86717.44
2022-12-17T04:45:00.396Z,86724.59
2022-12-17T04:47:27.521Z,86725.00
2022-12-17T04:49:54.668Z,86727.66
2022-12-17T04:52:21.868Z,86737.38
2022-12-17T04:54:49.384Z,86733.72
2022-12-17T04:57:16.506Z,86740.78
2022-12-17T04:59:43.687Z,86738.53
2022-12-17T05:02:11.002Z,86741.19
2022-12-17T05:04:38.283Z,86751.25
2022-12-17T05:07:05.419Z,86751.31
2022-12-17T05:09:32.641Z,86753.94
2022-12-17T05:12:00.325Z,86752.81
2022-12-17T05:14:28.148Z,86751.31
2022-12-17T05:16:56.237Z,86757.34
2022-12-17T05:19:23.496Z,86761.06
2022-12-17T05:21:50.804Z,86764.00
2022-12-17T05:24:18.296Z,86778.47
2022-12-17T05:26:46.089Z,86780.31
2022-12-17T05:29:16.060Z,86781.44
2022-12-17T05:31:43.510Z,86790.44
2022-12-17T05:34:11.065Z,86792.00
2022-12-17T05:36:38.374Z,86794.97
2022-12-17T05:39:05.519Z,86792.75
2022-12-17T05:41:33.424Z,86799.75
2022-12-17T05:44:01.025Z,86799.41
2022-12-17T05:46:29.625Z,86806.47
2022-12-17T05:48:56.817Z,86809.75
2022-12-17T05:51:24.098Z,86811.28
2022-12-17T05:53:51.271Z,86823.22
2022-12-17T05:56:18.459Z,86825.81
2022-12-17T05:58:45.610Z,86832.56
2022-12-17T06:01:12.989Z,86838.44
2022-12-17T06:03:41.165Z,86838.78
2022-12-17T06:06:08.742Z,86844.81
2022-12-17T06:08:35.983Z,86852.66
2022-12-17T06:11:03.271Z,86854.44
2022-12-17T06:13:30.419Z,86853.22
2022-12-17T06:15:57.730Z,86852.88
2022-12-17T06:18:25.561Z,86861.78
2022-12-17T06:20:53.277Z,86865.50
2022-12-17T06:23:20.648Z,86867.69
2022-12-17T06:25:48.174Z,86867.69
2022-12-17T06:28:15.345Z,86869.94
2022-12-17T06:30:42.503Z,86880.63
2022-12-17T06:33:12.893Z,86888.06
2022-12-17T06:35:40.604Z,86893.94
2022-12-17T06:38:08.187Z,86902.94
2022-12-17T06:40:35.367Z,86902.94
2022-12-17T06:43:02.498Z,86905.13
2022-12-17T06:45:29.624Z,86914.63
2022-12-17T06:48:08.742Z,86919.44
2022-12-17T06:50:35.925Z,86917.66
2022-12-17T06:53:06.883Z,86928.81
2022-12-17T06:55:34.094Z,86933.81
2022-12-17T06:58:01.726Z,86936.69
2022-12-17T07:00:29.051Z,86944.75
2022-12-17T07:02:57.882Z,86943.31
2022-12-17T07:05:25.417Z,86944.81
2022-12-17T07:07:59.996Z,86958.59
2022-12-17T07:10:27.145Z,86965.00
2022-12-17T07:12:54.300Z,86971.38
2022-12-17T07:15:21.473Z,86977.94
2022-12-17T07:18:03.823Z,86975.66
2022-12-17T07:20:31.152Z,86980.53
2022-12-17T07:22:58.372Z,86982.72
2022-12-17T07:25:25.600Z,86979.78
2022-12-17T07:27:55.035Z,86985.00
2022-12-17T07:30:23.228Z,86992.03
2022-12-17T07:33:04.961Z,86995.25
2022-12-17T07:35:32.661Z,86994.84
2022-12-17T07:38:02.911Z,87004.41
2022-12-17T07:40:30.039Z,87005.16
2022-12-17T07:42:57.729Z,87019.69
2022-12-17T07:45:25.514Z,87019.69
2022-12-17T07:47:55.707Z,87030.09
2022-12-17T07:50:22.850Z,87033.06
2022-12-17T07:53:01.695Z,87041.94
2022-12-17T07:55:28.950Z,87036.56
2022-12-17T07:58:07.860Z,87045.13
2022-12-17T08:00:35.212Z,87047.41
2022-12-17T08:03:02.852Z,87053.03
2022-12-17T08:05:39.028Z,87051.28
2022-12-17T08:08:12.050Z,87061.34
2022-12-17T08:10:39.323Z,87060.69
2022-12-17T08:13:12.424Z,87062.63
2022-12-17T08:15:41.234Z,87073.38
2022-12-17T08:18:08.378Z,87072.53
2022-12-17T08:20:35.741Z,87074.22
2022-12-17T08:23:05.106Z,87074.97
2022-12-17T08:25:32.309Z,87085.31
2022-12-17T08:28:04.620Z,87087.06
2022-12-17T08:30:37.912Z,87083.97
2022-12-17T08:33:06.315Z,87087.75
2022-12-17T08:35:33.529Z,87084.28
2022-12-17T08:38:06.040Z,87088.31
2022-12-17T08:40:33.331Z,87093.00
2022-12-17T08:43:00.516Z,87095.63
2022-12-17T08:45:27.646Z,87100.28
2022-12-17T08:48:05.893Z,87109.97
2022-12-17T08:50:33.098Z,87113.31
2022-12-17T08:53:02.826Z,87115.84
2022-12-17T08:55:29.989Z,87124.41
2022-12-17T08:57:59.157Z,87125.06
2022-12-17T09:00:26.386Z,87132.44
2022-12-17T09:03:01.942Z,87141.69
2022-12-17T09:05:29.458Z,87140.91
2022-12-17T09:08:06.699Z,87142.31
2022-12-17T09:10:34.125Z,87149.09
2022-12-17T09:13:05.275Z,87159.63
2022-12-17T09:15:32.897Z,87152.22
2022-12-17T09:18:00.092Z,87155.69
2022-12-17T09:20:29.519Z,87152.00
2022-12-17T09:22:57.553Z,87163.03
2022-12-17T09:25:24.820Z,87169.78
2022-12-17T09:27:52.004Z,87170.72
2022-12-17T09:30:19.300Z,87171.00
2022-12-17T09:32:46.437Z,87167.69
2022-12-17T09:35:13.781Z,87176.41
2022-12-17T09:37:41.007Z,87170.97
2022-12-17T09:40:18.522Z,87179.31
2022-12-17T09:43:05.677Z,87179.72
2022-12-17T09:46:26.411Z,87182.50
2022-12-17T09:49:00.185Z,87188.31
2022-12-17T09:51:29.798Z,87187.19
2022-12-17T09:53:57.198Z,87187.19
2022-12-17T09:56:30.504Z,87188.13
2022-12-17T09:58:58.535Z,87191.59
2022-12-17T10:01:35.152Z,87185.38
2022-12-17T10:04:06.947Z,87190.41
2022-12-17T10:06:36.340Z,87188.56
2022-12-17T10:09:14.425Z,87191.59
2022-12-17T10:11:42.152Z,87197.31
2022-12-17T10:14:23.705Z,87197.06
2022-12-17T10:16:50.936Z,87191.50
2022-12-17T10:19:38.614Z,87204.22
2022-12-17T10:22:12.771Z,87210.69
2022-12-17T10:24:46.182Z,87202.13
2022-12-17T10:27:20.275Z,87204.88
2022-12-17T10:29:48.565Z,87209.81
2022-12-17T10:32:15.872Z,87213.78
2022-12-17T10:34:46.813Z,87216.81
2022-12-17T10:37:21.550Z,87212.88
2022-12-17T10:40:02.592Z,87217.31
2022-12-17T10:42:39.181Z,87223.72
2022-12-17T10:45:38.491Z,87228.84
2022-12-17T10:48:19.568Z,87212.28
2022-12-17T10:50:47.000Z,87216.91
2022-12-17T10:53:25.141Z,87218.84
2022-12-17T10:55:57.309Z,87215.81
2022-12-17T10:58:30.019Z,87221.03
2022-12-17T11:01:02.070Z,87221.97
2022-12-17T11:03:50.994Z,87228.97
2022-12-17T11:06:31.673Z,87232.06
2022-12-17T11:09:02.843Z,87233.91
2022-12-17T11:11:30.383Z,87240.97
2022-12-17T11:14:02.914Z,87238.88
2022-12-17T11:16:42.514Z,87234.75
2022-12-17T11:19:09.628Z,87235.00
2022-12-17T11:21:48.015Z,87233.56
2022-12-17T11:24:26.650Z,87228.69
2022-12-17T11:26:57.100Z,87226.69
2022-12-17T11:29:24.876Z,87229.59
2022-12-17T11:32:21.664Z,87230.47
2022-12-17T11:35:06.001Z,87233.88
2022-12-17T11:38:07.922Z,87223.16
2022-12-17T11:40:42.718Z,87233.53
2022-12-17T11:43:35.895Z,87234.28
2022-12-17T11:46:27.683Z,87237.13
2022-12-17T11:49:10.075Z,87242.28
2022-12-17T11:51:53.876Z,87242.41
2022-12-17T11:54:29.558Z,87254.69
2022-12-17T11:57:51.398Z,87270.28
2022-12-17T12:00:24.153Z,87264.50
2022-12-17T12:03:36.865Z,87262.50
2022-12-17T12:06:16.466Z,87267.97
2022-12-17T12:09:21.907Z,87265.28
2022-12-17T12:12:30.908Z,87268.84
2022-12-17T12:15:13.038Z,87268.00
2022-12-17T12:17:40.191Z,87271.41
2022-12-17T12:20:45.858Z,87273.16
2022-12-17T12:24:07.359Z,87277.13
2022-12-17T12:27:13.521Z,87283.06
2022-12-17T12:30:29.557Z,87286.66
2022-12-17T12:33:26.806Z,87289.13
2022-12-17T12:36:02.267Z,87285.03
2022-12-17T12:38:45.945Z,87282.84
2022-12-17T12:41:43.097Z,87283.16
2022-12-17T12:44:49.587Z,87288.38
2022-12-17T12:47:58.739Z,87287.63
2022-12-17T12:50:48.983Z,87284.25
2022-12-17T12:53:16.252Z,87280.47
2022-12-17T12:55:44.188Z,87288.19
2022-12-17T12:58:43.948Z,87293.94
2022-12-17T13:01:12.233Z,87283.44
2022-12-17T13:03:45.544Z,87287.22
2022-12-17T13:06:37.674Z,87292.75
2022-12-17T13:09:16.954Z,87300.88
2022-12-17T13:11:56.711Z,87292.66
2022-12-17T13:14:31.423Z,87295.16
2022-12-17T13:17:28.045Z,87291.78
2022-12-17T13:19:57.936Z,87300.38
2022-12-17T13:22:28.286Z,87295.16
2022-12-17T13:25:18.615Z,87291.38
2022-12-17T13:27:46.043Z,87300.88
2022-12-17T13:30:19.079Z,87296.44
2022-12-17T13:33:24.001Z,87296.78
2022-12-17T13:36:25.062Z,87310.44
2022-12-17T13:39:34.068Z,87310.78
2022-12-17T13:42:01.461Z,87312.75
2022-12-17T13:44:43.940Z,87311.75
2022-12-17T13:47:29.240Z,87320.00
2022-12-17T13:50:32.064Z,87326.06
2022-12-17T13:52:46.557Z,87331.69
2022-12-17T13:55:27.309Z,87331.69
2022-12-17T13:57:55.630Z,87332.38
2022-12-17T14:00:30.975Z,87339.84
2022-12-17T14:03:10.855Z,87344.94
2022-12-17T14:05:43.415Z,87344.94
2022-12-17T14:08:18.758Z,87359.25
2022-12-17T14:10:53.681Z,87349.94
2022-12-17T14:13:21.118Z,87355.00
2022-12-17T14:15:51.513Z,87355.78
2022-12-17T14:18:21.682Z,87357.94
2022-12-17T14:20:55.834Z,87357.19
2022-12-17T14:23:34.246Z,87359.78
2022-12-17T14:26:01.900Z,87363.78
2022-12-17T14:28:50.031Z,87371.16
2022-12-17T14:31:29.161Z,87369.53
2022-12-17T14:34:09.091Z,87380.13
2022-12-17T14:36:43.044Z,87390.13
2022-12-17T14:39:45.502Z,87395.09
2022-12-17T14:42:21.617Z,87394.66
2022-12-17T14:44:51.877Z,87398.78
2022-12-17T14:47:21.569Z,87407.66
2022-12-17T14:50:19.397Z,87415.16
2022-12-17T14:52:50.665Z,87414.81
2022-12-17T14:55:39.955Z,87418.19
2022-12-17T14:58:13.229Z,87427.81
2022-12-17T15:01:06.903Z,87422.50
2022-12-17T15:03:41.425Z,87422.28
2022-12-17T15:06:15.583Z,87428.44
2022-12-17T15:08:47.317Z,87434.09
2022-12-17T15:11:21.622Z,87440.34
2022-12-17T15:13:53.033Z,87446.31
2022-12-17T15:16:23.406Z,87438.72
2022-12-17T15:18:50.604Z,87453.53
2022-12-17T15:21:19.433Z,87453.88
2022-12-17T15:23:47.918Z,87457.53
2022-12-17T15:26:15.572Z,87464.28
2022-12-17T15:28:44.102Z,87470.53
2022-12-17T15:31:14.008Z,87468.59
2022-12-17T15:33:42.443Z,87475.31
2022-12-17T15:36:11.959Z,87478.56
2022-12-17T15:38:39.707Z,87485.25
2022-12-17T15:41:07.388Z,87485.25
2022-12-17T15:43:37.621Z,87482.22
2022-12-17T15:46:04.977Z,87496.81
2022-12-17T15:48:32.202Z,87500.94
2022-12-17T15:50:59.358Z,87508.63
2022-12-17T15:53:26.511Z,87512.72
2022-12-17T15:56:01.407Z,87514.06
2022-12-17T15:58:29.434Z,87512.66
2022-12-17T16:00:57.243Z,87522.31
2022-12-17T16:03:24.575Z,87522.94
2022-12-17T16:05:51.928Z,87524.44
2022-12-17T16:08:19.687Z,87525.09
2022-12-17T16:10:48.984Z,87525.97
2022-12-17T16:13:16.440Z,87523.72
2022-12-17T16:15:46.213Z,87526.59
2022-12-17T16:18:14.378Z,87533.09
2022-12-17T16:20:41.515Z,87529.59
2022-12-17T16:23:08.672Z,87532.50
2022-12-17T16:25:35.840Z,87535.25
2022-12-17T16:28:18.484Z,87541.06
2022-12-17T16:31:06.485Z,87548.25
2022-12-17T16:33:36.998Z,87554.50
2022-12-17T16:36:07.307Z,87553.00
2022-12-17T16:38:34.966Z,87556.22
2022-12-17T16:41:03.872Z,87558.50
2022-12-17T16:43:34.644Z,87561.41
2022-12-17T16:46:06.461Z,87559.75
2022-12-17T16:48:40.117Z,87565.41
2022-12-17T16:51:28.425Z,87567.56
2022-12-17T16:53:57.856Z,87575.34
2022-12-17T16:56:29.032Z,87580.88
2022-12-17T16:58:57.629Z,87587.91
2022-12-17T17:01:29.722Z,87587.59
2022-12-17T17:03:58.599Z,87602.72
2022-12-17T17:06:31.721Z,87599.56
2022-12-17T17:09:07.386Z,87602.91
2022-12-17T17:11:34.936Z,87612.72
2022-12-17T17:14:02.201Z,87608.78
2022-12-17T17:16:29.479Z,87608.97
2022-12-17T17:18:57.170Z,87611.56
2022-12-17T17:21:29.819Z,87610.03
2022-12-17T17:24:00.491Z,87612.31
2022-12-17T17:26:31.126Z,87621.97
2022-12-17T17:28:59.515Z,87625.63
2022-12-17T17:32:01.297Z,87634.34
2022-12-17T17:34:16.738Z,87629.31
2022-12-17T17:36:44.844Z,87636.16
2022-12-17T17:39:12.845Z,87635.69
2022-12-17T17:41:40.524Z,87637.66
2022-12-17T17:44:12.638Z,87636.78
2022-12-17T17:46:40.841Z,87641.97
2022-12-17T17:49:10.031Z,87647.50
2022-12-17T17:54:30.389Z,87653.75
2022-12-17T17:56:57.569Z,87661.72
2022-12-17T17:59:32.520Z,87669.81
2022-12-17T18:02:02.371Z,87666.78
2022-12-17T18:04:29.980Z,87673.47
2022-12-17T18:09:44.776Z,87673.78
2022-12-17T18:12:12.101Z,87671.81
2022-12-17T18:14:46.666Z,87673.66
2022-12-17T18:17:25.074Z,87678.88
2022-12-17T18:19:52.323Z,87684.22
2022-12-17T18:22:19.581Z,87685.44
2022-12-17T18:24:47.097Z,87687.59
2022-12-17T18:27:14.275Z,87684.69
2022-12-17T18:29:41.570Z,87685.00
2022-12-17T18:32:08.725Z,87688.81
2022-12-17T18:34:36.153Z,87692.47
2022-12-17T18:37:03.460Z,87698.31
2022-12-17T18:39:30.677Z,87703.06
2022-12-17T18:41:57.865Z,87707.47
2022-12-17T18:44:26.718Z,87715.59
2022-12-17T18:46:54.875Z,87717.69
2022-12-17T18:49:23.769Z,87723.38
2022-12-17T18:51:51.406Z,87717.25
2022-12-17T18:54:25.118Z,87728.72
2022-12-17T18:57:00.836Z,87728.25
2022-12-17T18:59:30.657Z,87730.69
2022-12-17T19:01:59.241Z,87741.97
2022-12-17T19:04:27.686Z,87732.22
2022-12-17T19:06:55.233Z,87731.78
2022-12-17T19:09:32.186Z,87736.19
2022-12-17T19:11:59.293Z,87750.88
2022-12-17T19:14:26.525Z,87748.09
2022-12-17T19:16:56.022Z,87748.41
2022-12-17T19:19:23.572Z,87745.22
2022-12-17T19:21:52.964Z,87756.06
2022-12-17T19:24:20.960Z,87754.06
2022-12-17T19:26:49.907Z,87760.63
2022-12-17T19:29:20.645Z,87757.25
2022-12-17T19:31:48.504Z,87761.53
2022-12-17T19:34:19.107Z,87767.50
2022-12-17T19:36:46.960Z,87768.88
2022-12-17T19:39:20.070Z,87774.06
2022-12-17T19:41:47.496Z,87774.84
2022-12-17T19:44:17.061Z,87783.53
2022-12-17T19:46:44.949Z,87782.75
2022-12-17T19:49:14.960Z,87785.66
2022-12-17T19:51:43.034Z,87792.38
2022-12-17T19:54:12.085Z,87793.13
2022-12-17T19:56:39.436Z,87801.84
2022-12-17T19:59:09.962Z,87795.09
2022-12-17T20:01:44.502Z,87806.56
2022-12-17T20:04:14.504Z,87806.56
2022-12-17T20:06:43.556Z,87813.44
2022-12-17T20:09:11.740Z,87810.53
2022-12-17T20:11:39.749Z,87812.69
2022-12-17T20:14:18.303Z,87813.44
2022-12-17T20:16:58.124Z,87815.25
2022-12-17T20:19:30.442Z,87825.50
2022-12-17T20:22:00.120Z,87831.44
2022-12-17T20:24:31.017Z,87830.69
2022-12-17T20:27:00.274Z,87834.19
2022-12-17T20:29:27.918Z,87834.66
2022-12-17T20:31:55.642Z,87844.41
2022-12-17T20:34:23.529Z,87846.22
2022-12-17T20:36:52.914Z,87852.03
2022-12-17T20:39:26.250Z,87852.31
2022-12-17T20:41:55.366Z,87857.50
2022-12-17T20:44:22.611Z,87850.16
2022-12-17T20:46:49.755Z,87854.44
2022-12-17T20:49:16.916Z,87861.91
2022-12-17T20:51:44.287Z,87859.94
2022-12-17T20:54:11.720Z,87859.63
2022-12-17T20:56:40.095Z,87864.47
2022-12-17T20:59:13.089Z,87864.59
2022-12-17T21:01:41.016Z,87867.19
2022-12-17T21:04:08.473Z,87871.31
2022-12-17T21:06:42.292Z,87861.22
2022-12-17T21:09:10.502Z,87872.53
2022-12-17T21:11:40.052Z,87880.47
2022-12-17T21:14:13.031Z,87889.16
2022-12-17T21:16:42.064Z,87886.56
2022-12-17T21:19:14.565Z,87886.69
2022-12-17T21:21:41.999Z,87891.41
2022-12-17T21:24:10.440Z,87895.34
2022-12-17T21:26:40.801Z,87900.25
2022-12-17T21:29:09.821Z,87902.84
2022-12-17T21:31:50.840Z,87905.25
2022-12-17T21:34:23.067Z,87910.75
2022-12-17T21:36:51.505Z,87913.63
2022-12-17T21:39:20.529Z,87915.59
2022-12-17T21:41:47.940Z,87920.19
2022-12-17T21:44:15.734Z,87920.31
2022-12-17T21:46:50.050Z,87919.53
2022-12-17T21:49:17.793Z,87922.25
2022-12-17T21:51:45.233Z,87926.97
2022-12-17T21:54:17.278Z,87929.19
2022-12-17T21:56:47.100Z,87931.78
2022-12-17T21:59:14.394Z,87931.31
2022-12-17T22:01:41.939Z,87937.88
2022-12-17T22:04:09.800Z,87937.69
2022-12-17T22:06:48.367Z,87940.00
2022-12-17T22:09:29.033Z,87933.88
2022-12-17T22:12:08.381Z,87939.63
2022-12-17T22:14:35.796Z,87943.31
2022-12-17T22:17:03.088Z,87944.03
2022-12-17T22:19:33.375Z,87945.59
2022-12-17T22:22:00.672Z,87951.19
2022-12-17T22:24:27.932Z,87956.16
2022-12-17T22:27:01.308Z,87963.78
2022-12-17T22:29:28.795Z,87959.66
2022-12-17T22:31:55.926Z,87966.16
2022-12-17T22:35:42.435Z,87967.06
2022-12-17T22:39:49.060Z,87970.06
2022-12-17T22:44:02.288Z,87976.31
2022-12-17T22:44:35.709Z,87976.09
2022-12-17T22:45:32.965Z,87975.84
2022-12-17T22:48:00.125Z,87976.41
2022-12-17T22:50:28.557Z,87972.56
2022-12-17T22:53:05.706Z,87970.75
2022-12-17T22:55:34.602Z,87966.34
2022-12-17T22:58:02.377Z,87975.00
2022-12-17T23:00:35.682Z,87971.34
2022-12-17T23:03:04.087Z,87972.22
2022-12-17T23:05:32.584Z,87975.88
2022-12-17T23:08:00.479Z,87978.56
2022-12-17T23:10:28.367Z,87980.19
2022-12-17T23:12:56.306Z,87986.25
2022-12-17T23:15:43.761Z,87980.88
2022-12-17T23:18:12.620Z,87984.06
2022-12-17T23:20:39.789Z,87992.41
2022-12-17T23:23:06.991Z,87985.50
2022-12-17T23:25:35.479Z,87994.91
2022-12-17T23:28:02.948Z,87994.44
2022-12-17T23:30:30.331Z,87989.81
2022-12-17T23:32:57.630Z,87988.00
2022-12-17T23:35:24.949Z,87996.91
2022-12-17T23:37:52.623Z,87990.78
2022-12-17T23:40:19.980Z,87987.53
2022-12-17T23:42:47.204Z,87989.94
2022-12-17T23:45:14.532Z,87995.66
2022-12-17T23:47:41.789Z,87999.88
2022-12-17T23:50:11.150Z,88000.84
2022-12-17T23:52:39.418Z,88000.09
2022-12-17T23:55:07.686Z,88005.66
2022-12-17T23:57:34.936Z,88002.38
